createdAt,value
2019-03-27T00:02:21.996Z,67.50
2019-03-27T00:04:50.389Z,67.50
2019-03-27T00:07:18.766Z,66.60
2019-03-27T00:09:47.171Z,67.20
2019-03-27T00:12:15.543Z,67.40
2019-03-27T00:14:43.948Z,67.40
2019-03-27T00:17:12.338Z,67.10
2019-03-27T00:19:40.732Z,67.70
2019-03-27T00:22:09.094Z,67.40
2019-03-27T00:24:37.483Z,67.40
2019-03-27T00:27:05.851Z,68.60
2019-03-27T00:29:34.247Z,68.40
2019-03-27T00:32:02.610Z,67.90
2019-03-27T00:34:30.947Z,67.90
2019-03-27T00:36:59.337Z,68.40
2019-03-27T00:39:27.752Z,69.60
2019-03-27T00:41:56.110Z,70.30
2019-03-27T00:44:24.509Z,69.10
2019-03-27T00:46:52.912Z,68.50
2019-03-27T00:49:21.310Z,69.00
2019-03-27T00:51:49.688Z,68.80
2019-03-27T00:54:18.086Z,69.20
2019-03-27T00:56:46.403Z,69.00
2019-03-27T00:59:14.780Z,69.10
2019-03-27T01:01:43.175Z,69.60
2019-03-27T01:04:11.554Z,70.10
2019-03-27T01:06:39.944Z,70.00
2019-03-27T01:09:08.311Z,70.70
2019-03-27T01:11:36.718Z,70.60
2019-03-27T01:14:05.104Z,70.30
2019-03-27T01:16:33.486Z,70.00
2019-03-27T01:19:01.872Z,70.30
2019-03-27T01:21:30.256Z,71.10
2019-03-27T01:23:58.625Z,70.80
2019-03-27T01:26:27.017Z,70.70
2019-03-27T01:28:55.388Z,71.00
2019-03-27T01:31:23.787Z,71.80
2019-03-27T01:33:52.168Z,71.90
2019-03-27T01:36:20.554Z,71.20
2019-03-27T01:38:48.953Z,71.20
2019-03-27T01:41:17.367Z,71.40
2019-03-27T01:43:45.747Z,71.90
2019-03-27T01:46:14.205Z,72.70
2019-03-27T01:48:42.607Z,73.30
2019-03-27T01:51:10.970Z,73.60
2019-03-27T01:53:39.338Z,74.10
2019-03-27T01:56:07.659Z,73.60
2019-03-27T01:58:35.965Z,72.80
2019-03-27T02:01:04.365Z,73.50
2019-03-27T02:03:32.744Z,73.40
2019-03-27T02:06:01.154Z,73.10
2019-03-27T02:08:29.524Z,73.30
2019-03-27T02:10:57.928Z,72.60
2019-03-27T02:13:26.298Z,72.60
2019-03-27T02:16:06.311Z,73.80
2019-03-27T02:18:24.714Z,74.30
2019-03-27T02:20:53.103Z,74.20
2019-03-27T02:23:21.485Z,73.70
2019-03-27T02:25:49.948Z,73.80
2019-03-27T02:28:18.323Z,73.90
2019-03-27T02:30:46.719Z,74.10
2019-03-27T02:33:15.121Z,74.20
2019-03-27T02:35:43.514Z,73.90
2019-03-27T02:38:11.889Z,73.20
2019-03-27T02:40:40.293Z,73.00
2019-03-27T02:43:08.663Z,73.90
2019-03-27T02:45:37.047Z,73.60
2019-03-27T02:48:05.415Z,73.50
2019-03-27T02:50:33.811Z,74.20
2019-03-27T02:53:02.295Z,73.00
2019-03-27T02:55:30.687Z,72.40
2019-03-27T02:57:59.075Z,71.70
2019-03-27T03:00:27.452Z,72.00
2019-03-27T03:02:55.853Z,72.10
2019-03-27T03:05:24.224Z,72.00
2019-03-27T03:07:52.616Z,72.00
2019-03-27T03:10:21.051Z,71.90
2019-03-27T03:12:49.442Z,71.70
2019-03-27T03:15:21.588Z,71.20
2019-03-27T03:17:50.157Z,71.50
2019-03-27T03:20:18.540Z,71.60
2019-03-27T03:22:46.945Z,72.30
2019-03-27T03:25:15.319Z,73.10
2019-03-27T03:27:43.712Z,73.60
2019-03-27T03:30:12.100Z,73.60
2019-03-27T03:32:40.536Z,74.10
2019-03-27T03:35:08.906Z,73.90
2019-03-27T03:37:37.296Z,74.10
2019-03-27T03:40:05.727Z,74.70
2019-03-27T03:42:34.305Z,75.10
2019-03-27T03:45:02.700Z,75.60
2019-03-27T03:47:32.330Z,75.80
2019-03-27T03:52:54.336Z,76.20
2019-03-27T03:55:22.747Z,76.10
2019-03-27T03:58:09.276Z,75.60
2019-03-27T04:00:37.798Z,74.80
2019-03-27T04:03:06.282Z,74.90
2019-03-27T04:05:34.735Z,74.80
2019-03-27T04:08:19.431Z,74.90
2019-03-27T04:11:09.179Z,74.80
2019-03-27T04:13:37.585Z,75.80
2019-03-27T04:16:05.966Z,75.20
2019-03-27T04:18:34.400Z,74.90
2019-03-27T04:21:02.802Z,74.90
2019-03-27T04:23:31.222Z,75.80
2019-03-27T04:26:09.647Z,76.00
2019-03-27T04:28:29.723Z,75.50
2019-03-27T04:30:58.127Z,76.20
2019-03-27T04:33:26.540Z,75.70
2019-03-27T04:35:54.999Z,76.00
2019-03-27T04:38:23.439Z,76.20
2019-03-27T04:40:51.840Z,76.80
2019-03-27T04:43:20.258Z,75.70
2019-03-27T04:45:48.670Z,75.00
2019-03-27T04:48:17.107Z,74.80
2019-03-27T04:50:46.523Z,75.40
2019-03-27T04:53:14.958Z,75.70
2019-03-27T04:55:43.371Z,76.60
2019-03-27T04:58:11.790Z,76.10
2019-03-27T05:00:40.183Z,76.00
2019-03-27T05:03:08.590Z,76.70
2019-03-27T05:05:36.971Z,77.10
2019-03-27T05:08:05.387Z,77.40
2019-03-27T05:10:33.877Z,77.20
2019-03-27T05:13:02.305Z,76.70
2019-03-27T05:15:30.709Z,75.60
2019-03-27T05:17:59.102Z,75.20
2019-03-27T05:20:28.842Z,74.60
2019-03-27T05:22:57.397Z,74.70
2019-03-27T05:25:25.809Z,74.50
2019-03-27T05:27:54.203Z,74.70
2019-03-27T05:30:27.498Z,74.80
2019-03-27T05:32:55.306Z,74.80
2019-03-27T05:35:23.824Z,75.20
2019-03-27T05:37:52.224Z,75.90
2019-03-27T05:40:21.177Z,76.10
2019-03-27T05:42:59.996Z,76.40
2019-03-27T05:45:19.809Z,76.10
2019-03-27T05:47:58.882Z,76.10
2019-03-27T05:50:18.269Z,76.20
2019-03-27T05:52:46.657Z,76.60
2019-03-27T05:55:15.078Z,77.10
2019-03-27T05:57:43.477Z,77.90
2019-03-27T06:00:13.110Z,77.80
2019-03-27T06:02:41.500Z,77.40
2019-03-27T06:05:09.999Z,77.10
2019-03-27T06:07:38.484Z,76.90
2019-03-27T06:10:07.052Z,77.40
2019-03-27T06:12:35.438Z,77.40
2019-03-27T06:15:05.400Z,76.10
2019-03-27T06:17:33.774Z,75.90
2019-03-27T06:20:02.263Z,76.10
2019-03-27T06:22:30.671Z,76.00
2019-03-27T06:24:59.341Z,75.80
2019-03-27T06:27:27.731Z,75.70
2019-03-27T06:29:56.376Z,75.50
2019-03-27T06:32:24.941Z,74.80
2019-03-27T06:34:53.351Z,74.80
2019-03-27T06:37:21.744Z,75.00
2019-03-27T06:39:50.327Z,74.30
2019-03-27T06:42:18.723Z,73.90
2019-03-27T06:44:47.127Z,73.30
2019-03-27T06:47:15.531Z,70.30
2019-03-27T06:49:43.961Z,70.10
2019-03-27T06:52:12.349Z,71.40
2019-03-27T06:54:40.772Z,71.10
2019-03-27T06:57:09.178Z,70.80
2019-03-27T06:59:37.582Z,70.60
2019-03-27T07:02:05.960Z,70.00
2019-03-27T07:04:34.386Z,69.50
2019-03-27T07:07:02.785Z,70.10
2019-03-27T07:09:31.256Z,69.30
2019-03-27T07:11:59.655Z,68.70
2019-03-27T07:14:28.036Z,69.10
2019-03-27T07:16:56.457Z,69.60
2019-03-27T07:19:24.845Z,69.60
2019-03-27T07:21:53.279Z,69.10
2019-03-27T07:24:21.674Z,69.30
2019-03-27T07:26:50.094Z,69.30
2019-03-27T07:29:19.150Z,69.20
2019-03-27T07:31:47.744Z,68.90
2019-03-27T07:34:16.138Z,68.60
2019-03-27T07:36:44.556Z,67.70
2019-03-27T07:39:13.008Z,67.20
2019-03-27T07:41:41.461Z,65.30
2019-03-27T07:44:09.875Z,65.00
2019-03-27T07:46:38.284Z,65.90
2019-03-27T07:49:06.682Z,65.60
2019-03-27T07:51:35.144Z,64.20
2019-03-27T07:54:03.518Z,64.50
2019-03-27T07:56:31.938Z,63.60
2019-03-27T07:59:00.330Z,64.10
2019-03-27T08:01:28.747Z,62.30
2019-03-27T08:03:57.168Z,63.80
2019-03-27T08:06:25.579Z,64.10
2019-03-27T08:08:53.976Z,64.70
2019-03-27T08:11:22.492Z,62.80
2019-03-27T08:13:50.881Z,62.20
2019-03-27T08:16:19.312Z,60.80
2019-03-27T08:18:47.711Z,61.70
2019-03-27T08:21:16.132Z,60.60
2019-03-27T08:23:44.527Z,61.60
2019-03-27T08:26:12.944Z,61.20
2019-03-27T08:28:41.350Z,58.70
2019-03-27T08:31:09.777Z,59.10
2019-03-27T08:33:38.190Z,59.10
2019-03-27T08:36:06.606Z,58.70
2019-03-27T08:38:35.009Z,58.60
2019-03-27T08:41:03.479Z,57.60
2019-03-27T08:43:31.828Z,56.00
2019-03-27T08:46:00.266Z,57.00
2019-03-27T08:48:28.648Z,57.20
2019-03-27T08:50:57.147Z,58.00
2019-03-27T08:53:25.502Z,59.30
2019-03-27T08:55:53.926Z,57.50
2019-03-27T08:58:22.358Z,58.90
2019-03-27T09:00:54.701Z,59.80
2019-03-27T09:03:23.116Z,59.00
2019-03-27T09:05:51.579Z,58.50
2019-03-27T09:08:20.004Z,56.90
2019-03-27T09:10:48.402Z,56.40
2019-03-27T09:13:16.836Z,55.80
2019-03-27T09:15:45.233Z,54.20
2019-03-27T09:18:16.789Z,54.80
2019-03-27T09:20:43.723Z,53.50
2019-03-27T09:23:12.133Z,52.20
2019-03-27T09:25:40.543Z,49.30
2019-03-27T09:28:08.974Z,50.50
2019-03-27T09:30:37.363Z,53.30
2019-03-27T09:33:05.788Z,54.00
2019-03-27T09:35:34.236Z,55.30
2019-03-27T09:38:02.609Z,54.90
2019-03-27T09:40:31.012Z,55.40
2019-03-27T09:42:59.446Z,54.30
2019-03-27T09:45:27.846Z,52.40
2019-03-27T09:47:56.244Z,51.30
2019-03-27T09:50:24.628Z,51.00
2019-03-27T09:52:53.016Z,48.10
2019-03-27T09:55:21.316Z,48.80
2019-03-27T09:57:49.714Z,50.10
2019-03-27T10:00:26.948Z,50.60
2019-03-27T10:02:57.245Z,51.70
2019-03-27T10:05:25.389Z,50.50
2019-03-27T10:07:53.783Z,49.30
2019-03-27T10:10:22.168Z,49.10
2019-03-27T10:12:50.584Z,48.50
2019-03-27T10:15:18.962Z,48.10
2019-03-27T10:17:47.351Z,47.20
2019-03-27T10:20:15.655Z,48.10
2019-03-27T10:22:44.066Z,48.80
2019-03-27T10:25:12.434Z,49.50
2019-03-27T10:27:40.823Z,50.90
2019-03-27T10:30:09.192Z,49.90
2019-03-27T10:32:37.605Z,48.70
2019-03-27T10:35:06.148Z,48.90
2019-03-27T10:37:35.428Z,50.20
2019-03-27T10:40:06.435Z,50.30
2019-03-27T10:42:34.815Z,51.30
2019-03-27T10:45:03.372Z,51.60
2019-03-27T10:47:31.768Z,51.40
2019-03-27T10:50:00.388Z,49.00
2019-03-27T10:52:28.852Z,49.80
2019-03-27T10:54:57.230Z,49.10
2019-03-27T10:57:25.650Z,47.70
2019-03-27T10:59:54.023Z,44.40
2019-03-27T11:02:22.397Z,42.20
2019-03-27T11:04:50.794Z,39.70
2019-03-27T11:07:19.172Z,38.40
2019-03-27T11:09:47.582Z,41.80
2019-03-27T11:12:15.958Z,43.60
2019-03-27T11:14:44.382Z,45.70
2019-03-27T11:17:12.746Z,47.60
2019-03-27T11:19:41.153Z,48.20
2019-03-27T11:22:09.531Z,48.80
2019-03-27T11:24:37.935Z,50.50
2019-03-27T11:27:06.328Z,51.60
2019-03-27T11:29:34.732Z,51.50
2019-03-27T11:32:03.108Z,52.90
2019-03-27T11:34:31.528Z,53.00
2019-03-27T11:36:59.907Z,52.60
2019-03-27T11:39:28.335Z,53.20
2019-03-27T11:41:56.717Z,53.20
2019-03-27T11:44:25.105Z,52.40
2019-03-27T11:46:53.486Z,53.50
2019-03-27T11:49:21.878Z,53.50
2019-03-27T11:51:50.263Z,53.10
2019-03-27T11:54:18.674Z,52.20
2019-03-27T11:56:47.061Z,52.40
2019-03-27T11:59:15.448Z,51.50
2019-03-27T12:01:44.030Z,50.80
2019-03-27T12:04:12.637Z,51.30
2019-03-27T12:06:41.026Z,51.80
2019-03-27T12:09:09.444Z,50.80
2019-03-27T12:11:37.794Z,51.50
2019-03-27T12:14:06.186Z,51.20
2019-03-27T12:16:34.555Z,51.00
2019-03-27T12:19:02.970Z,51.00
2019-03-27T12:21:31.352Z,50.20
2019-03-27T12:23:59.737Z,49.00
2019-03-27T12:26:28.115Z,49.70
2019-03-27T12:28:56.491Z,50.30
2019-03-27T12:31:24.879Z,50.90
2019-03-27T12:33:53.268Z,50.60
2019-03-27T12:36:21.703Z,50.80
2019-03-27T12:38:50.028Z,51.10
2019-03-27T12:41:18.424Z,51.50
2019-03-27T12:43:46.799Z,49.40
2019-03-27T12:46:15.199Z,49.10
2019-03-27T12:48:43.500Z,47.50
2019-03-27T12:51:13.351Z,46.10
2019-03-27T12:53:41.866Z,47.40
2019-03-27T12:56:10.260Z,47.60
2019-03-27T12:58:38.636Z,46.80
2019-03-27T13:01:07.040Z,48.00
2019-03-27T13:03:35.424Z,47.70
2019-03-27T13:06:03.819Z,45.90
2019-03-27T13:08:32.196Z,46.70
2019-03-27T13:11:00.612Z,46.30
2019-03-27T13:13:28.991Z,46.80
2019-03-27T13:15:57.384Z,47.10
2019-03-27T13:18:25.757Z,46.80
2019-03-27T13:20:54.256Z,46.50
2019-03-27T13:23:22.631Z,47.20
2019-03-27T13:25:51.183Z,46.30
2019-03-27T13:28:19.552Z,47.30
2019-03-27T13:30:47.958Z,47.20
2019-03-27T13:33:16.323Z,47.50
2019-03-27T13:35:44.731Z,47.30
2019-03-27T13:38:13.123Z,47.60
2019-03-27T13:40:41.515Z,46.60
2019-03-27T13:43:09.878Z,49.60
2019-03-27T13:45:38.269Z,51.70
2019-03-27T13:48:06.651Z,43.00
2019-03-27T13:50:35.043Z,43.90
2019-03-27T13:53:03.416Z,43.30
2019-03-27T13:55:34.908Z,44.10
2019-03-27T13:58:01.877Z,44.40
2019-03-27T14:00:30.242Z,43.30
2019-03-27T14:02:58.694Z,43.30
2019-03-27T14:05:27.120Z,42.90
2019-03-27T14:07:55.511Z,43.60
2019-03-27T14:10:23.892Z,43.30
2019-03-27T14:12:52.290Z,43.40
2019-03-27T14:15:21.044Z,43.20
2019-03-27T14:17:49.436Z,43.80
2019-03-27T14:20:17.812Z,42.70
2019-03-27T14:22:46.264Z,44.00
2019-03-27T14:25:14.575Z,44.90
2019-03-27T14:27:45.464Z,44.40
2019-03-27T14:30:15.504Z,44.80
2019-03-27T14:32:43.896Z,46.00
2019-03-27T14:35:12.267Z,45.30
2019-03-27T14:37:40.677Z,45.10
2019-03-27T14:40:09.220Z,45.40
2019-03-27T14:42:37.629Z,44.10
2019-03-27T14:45:08.346Z,43.10
2019-03-27T14:47:36.756Z,43.70
2019-03-27T14:50:07.922Z,45.00
2019-03-27T14:52:36.302Z,44.80
2019-03-27T14:55:07.403Z,45.10
2019-03-27T14:57:36.070Z,43.60
2019-03-27T15:00:09.534Z,42.80
2019-03-27T15:02:37.991Z,42.60
2019-03-27T15:05:07.208Z,41.50
2019-03-27T15:07:35.608Z,41.10
2019-03-27T15:10:06.236Z,42.80
2019-03-27T15:12:34.619Z,41.80
2019-03-27T15:15:03.164Z,44.00
2019-03-27T15:17:31.554Z,42.70
2019-03-27T15:19:59.916Z,44.10
2019-03-27T15:22:28.331Z,43.80
2019-03-27T15:24:56.718Z,44.10
2019-03-27T15:27:25.110Z,43.90
2019-03-27T15:29:53.483Z,44.10
2019-03-27T15:32:21.875Z,44.10
2019-03-27T15:34:50.247Z,44.60
2019-03-27T15:37:18.635Z,44.00
2019-03-27T15:39:47.022Z,44.10
2019-03-27T15:42:15.405Z,44.40
2019-03-27T15:44:43.781Z,45.10
2019-03-27T15:47:12.280Z,45.50
2019-03-27T15:49:40.718Z,44.30
2019-03-27T15:52:09.104Z,44.20
2019-03-27T15:54:37.557Z,43.60
2019-03-27T15:57:05.949Z,45.20
2019-03-27T15:59:34.318Z,44.60
2019-03-27T16:02:02.727Z,44.30
2019-03-27T16:04:31.095Z,44.70
2019-03-27T16:06:59.497Z,44.80
2019-03-27T16:09:27.864Z,44.60
2019-03-27T16:11:56.255Z,44.40
2019-03-27T16:14:26.617Z,44.30
2019-03-27T16:17:12.040Z,44.90
2019-03-27T16:19:25.019Z,43.60
2019-03-27T16:21:53.393Z,44.60
2019-03-27T16:24:21.784Z,44.70
2019-03-27T16:27:03.760Z,44.40
2019-03-27T16:29:20.211Z,43.50
2019-03-27T16:31:48.579Z,44.90
2019-03-27T16:34:16.983Z,45.20
2019-03-27T16:36:45.360Z,44.60
2019-03-27T16:39:13.775Z,44.70
2019-03-27T16:41:42.139Z,45.00
2019-03-27T16:44:10.541Z,45.10
2019-03-27T16:46:38.912Z,45.20
2019-03-27T16:49:07.304Z,44.70
2019-03-27T16:51:35.683Z,45.50
2019-03-27T16:54:04.108Z,45.60
2019-03-27T16:56:32.475Z,46.20
2019-03-27T16:59:00.796Z,46.50
2019-03-27T17:01:29.170Z,46.10
2019-03-27T17:03:57.570Z,46.60
2019-03-27T17:06:25.954Z,46.20
2019-03-27T17:08:54.414Z,46.10
2019-03-27T17:11:22.712Z,46.10
2019-03-27T17:13:51.093Z,46.70
2019-03-27T17:16:19.408Z,47.30
2019-03-27T17:18:47.808Z,47.10
2019-03-27T17:21:16.171Z,47.90
2019-03-27T17:23:44.559Z,48.10
2019-03-27T17:26:12.855Z,48.70
2019-03-27T17:28:41.248Z,48.90
2019-03-27T17:31:09.611Z,49.20
2019-03-27T17:33:38.011Z,49.20
2019-03-27T17:36:06.392Z,49.60
2019-03-27T17:38:34.775Z,49.70
2019-03-27T17:41:03.279Z,49.90
2019-03-27T17:43:31.683Z,49.90
2019-03-27T17:46:00.052Z,50.60
2019-03-27T17:48:28.455Z,50.50
2019-03-27T17:50:57.468Z,50.70
2019-03-27T17:53:31.380Z,50.20
2019-03-27T17:55:59.049Z,50.20
2019-03-27T17:58:27.438Z,50.60
2019-03-27T18:00:57.117Z,50.70
2019-03-27T18:03:25.516Z,50.70
2019-03-27T18:05:53.887Z,51.20
2019-03-27T18:08:22.332Z,51.00
2019-03-27T18:10:50.660Z,51.10
2019-03-27T18:13:19.066Z,51.00
2019-03-27T18:15:47.440Z,51.20
2019-03-27T18:18:15.844Z,51.90
2019-03-27T18:20:44.221Z,51.20
2019-03-27T18:23:12.629Z,51.50
2019-03-27T18:25:40.999Z,51.80
2019-03-27T18:28:09.396Z,51.80
2019-03-27T18:30:37.777Z,52.00
2019-03-27T18:33:06.192Z,51.90
2019-03-27T18:35:34.575Z,51.70
2019-03-27T18:38:02.975Z,51.90
2019-03-27T18:40:31.349Z,52.20
2019-03-27T18:42:59.762Z,52.80
2019-03-27T18:45:28.182Z,52.40
2019-03-27T18:47:56.564Z,51.90
2019-03-27T18:50:25.239Z,52.50
2019-03-27T18:52:53.603Z,52.90
2019-03-27T18:55:26.727Z,53.60
2019-03-27T18:58:00.093Z,53.50
2019-03-27T19:00:22.118Z,53.90
2019-03-27T19:02:50.470Z,54.10
2019-03-27T19:05:18.862Z,54.60
2019-03-27T19:07:47.252Z,54.90
2019-03-27T19:10:15.643Z,55.30
2019-03-27T19:12:44.027Z,55.70
2019-03-27T19:15:13.103Z,56.30
2019-03-27T19:17:41.495Z,56.90
2019-03-27T19:20:09.892Z,57.10
2019-03-27T19:22:38.300Z,57.30
2019-03-27T19:25:07.450Z,57.60
2019-03-27T19:27:35.955Z,58.10
2019-03-27T19:30:06.387Z,58.50
2019-03-27T19:32:34.747Z,58.60
2019-03-27T19:35:03.146Z,58.70
2019-03-27T19:37:31.771Z,59.10
2019-03-27T19:40:01.168Z,59.60
2019-03-27T19:42:30.186Z,59.70
2019-03-27T19:44:58.663Z,60.00
2019-03-27T19:47:27.116Z,60.20
2019-03-27T19:49:55.692Z,60.50
2019-03-27T19:52:24.077Z,60.50
2019-03-27T19:54:52.463Z,61.00
2019-03-27T19:57:20.838Z,61.80
2019-03-27T19:59:49.235Z,62.00
2019-03-27T20:02:17.590Z,62.00
2019-03-27T20:04:46.242Z,62.00
2019-03-27T20:07:14.592Z,62.20
2019-03-27T20:09:42.995Z,62.20
2019-03-27T20:12:11.377Z,62.90
2019-03-27T20:14:42.391Z,63.00
2019-03-27T20:17:09.807Z,63.30
2019-03-27T20:19:38.221Z,63.30
2019-03-27T20:22:06.741Z,63.40
2019-03-27T20:24:40.868Z,63.50
2019-03-27T20:27:05.142Z,63.90
2019-03-27T20:29:33.556Z,64.30
2019-03-27T20:32:01.928Z,64.10
2019-03-27T20:34:30.332Z,64.20
2019-03-27T20:36:59.075Z,64.80
2019-03-27T20:39:27.488Z,64.60
2019-03-27T20:41:56.250Z,65.10
2019-03-27T20:44:24.640Z,64.30
2019-03-27T20:46:52.995Z,64.50
2019-03-27T20:49:21.378Z,64.50
2019-03-27T20:51:49.742Z,64.40
2019-03-27T20:54:19.248Z,64.50
2019-03-27T20:56:47.668Z,65.30
2019-03-27T20:59:18.355Z,65.80
2019-03-27T21:01:46.099Z,66.30
2019-03-27T21:04:14.455Z,66.40
2019-03-27T21:06:42.864Z,66.20
2019-03-27T21:09:11.309Z,66.30
2019-03-27T21:11:39.708Z,66.80
2019-03-27T21:14:08.074Z,66.80
2019-03-27T21:16:36.485Z,66.90
2019-03-27T21:19:04.864Z,67.80
2019-03-27T21:21:33.260Z,68.50
2019-03-27T21:24:01.622Z,68.90
2019-03-27T21:26:30.028Z,69.00
2019-03-27T21:28:58.472Z,69.40
2019-03-27T21:31:26.867Z,69.10
2019-03-27T21:33:57.721Z,68.30
2019-03-27T21:36:25.254Z,68.00
2019-03-27T21:38:53.630Z,68.40
2019-03-27T21:41:22.024Z,68.50
2019-03-27T21:43:50.502Z,69.10
2019-03-27T21:46:18.913Z,69.50
2019-03-27T21:48:47.290Z,69.90
2019-03-27T21:51:15.683Z,70.10
2019-03-27T21:53:50.399Z,70.20
2019-03-27T21:56:15.022Z,69.60
2019-03-27T21:58:43.405Z,69.30
2019-03-27T22:01:11.800Z,68.90
2019-03-27T22:03:40.171Z,69.00
2019-03-27T22:06:08.623Z,70.00
2019-03-27T22:08:36.935Z,70.10
2019-03-27T22:11:05.407Z,70.60
2019-03-27T22:13:33.855Z,70.30
2019-03-27T22:16:02.249Z,70.10
2019-03-27T22:18:30.619Z,70.10
2019-03-27T22:20:59.021Z,69.80
2019-03-27T22:23:27.387Z,70.00
2019-03-27T22:25:55.783Z,69.70
2019-03-27T22:28:24.177Z,70.40
2019-03-27T22:30:52.579Z,71.10
2019-03-27T22:33:20.952Z,71.60
2019-03-27T22:35:49.343Z,72.20
2019-03-27T22:38:17.710Z,72.20
2019-03-27T22:40:46.075Z,72.20
2019-03-27T22:43:14.483Z,72.20
2019-03-27T22:45:42.854Z,73.00
2019-03-27T22:48:11.239Z,72.80
2019-03-27T22:50:39.605Z,72.70
2019-03-27T22:53:07.987Z,72.80
2019-03-27T22:55:48.962Z,72.60
2019-03-27T22:58:06.392Z,72.90
2019-03-27T23:00:45.292Z,73.20
2019-03-27T23:03:18.396Z,73.60
2019-03-27T23:05:44.618Z,73.10
2019-03-27T23:08:13.016Z,72.90
2019-03-27T23:10:41.463Z,73.10
2019-03-27T23:13:09.938Z,73.30
2019-03-27T23:15:38.303Z,73.60
2019-03-27T23:18:06.710Z,73.80
2019-03-27T23:20:35.078Z,73.90
2019-03-27T23:23:03.471Z,73.50
2019-03-27T23:25:31.844Z,73.70
2019-03-27T23:28:00.378Z,74.20
2019-03-27T23:30:28.707Z,74.20
2019-03-27T23:32:57.101Z,74.00
2019-03-27T23:35:25.469Z,74.00
2019-03-27T23:37:53.860Z,74.10
2019-03-27T23:40:22.230Z,73.80
2019-03-27T23:42:50.623Z,73.90
2019-03-27T23:45:19.002Z,74.70
2019-03-27T23:47:47.392Z,75.30
2019-03-27T23:50:15.755Z,74.30
2019-03-27T23:52:44.159Z,74.60
2019-03-27T23:55:12.531Z,75.00
2019-03-27T23:57:40.932Z,76.00
